Morro do Chapeu, Brazil
Current Conditions -  °F | °C
As of 7:00 PM on Tuesday 21 Oct 2014 (Local Time) from SBPL Reporting Station
Clear Clear  
Wind Chill: 88°   Ceiling: Unl
Heat Index: 88°   Visibility: 6mi
Dew Point: 61°   Wind: 7mph
Humidity: 40%   Direction: 170°S
Pressure: 29.88"   Gusts: NA
Location:  11.55°S, 41.16°W
Report Text: SBPL 212200Z 17006KT CAVOK 31/16 Q1012
Loading
Personal Weather Stations






























Interactive Weather Map
Tropical Storm Tracking
New forecast layout! Learn more

10-Day Weather Forecast

Advertisements
Track Severe Weather on mobile